createdAt,value
2022-08-02T00:02:40.927Z,1.40
2022-08-02T00:05:23.108Z,2.05
2022-08-02T00:08:12.253Z,1.90
2022-08-02T00:10:53.060Z,1.20
2022-08-02T00:13:39.883Z,1.45
2022-08-02T00:16:21.323Z,1.85
2022-08-02T00:19:26.405Z,1.52
2022-08-02T00:22:07.136Z,1.60
2022-08-02T00:25:00.887Z,1.50
2022-08-02T00:27:49.477Z,1.13
2022-08-02T00:30:31.042Z,1.30
2022-08-02T00:34:05.257Z,1.40
2022-08-02T00:36:23.897Z,1.30
2022-08-02T00:39:34.601Z,1.30
2022-08-02T00:42:13.155Z,1.27
2022-08-02T00:45:03.046Z,1.38
2022-08-02T00:47:43.899Z,1.52
2022-08-02T00:50:33.644Z,1.30
2022-08-02T00:53:17.911Z,1.10
2022-08-02T00:56:07.098Z,1.17
2022-08-02T00:58:48.301Z,1.65
2022-08-02T01:01:38.726Z,1.00
2022-08-02T01:04:38.938Z,1.20
2022-08-02T01:07:27.087Z,1.00
2022-08-02T01:10:07.935Z,1.13
2022-08-02T01:12:55.187Z,1.00
2022-08-02T01:15:36.851Z,1.30
2022-08-02T01:18:58.021Z,1.38
2022-08-02T01:21:46.331Z,1.45
2022-08-02T01:25:03.907Z,1.10
2022-08-02T01:28:29.035Z,0.93
2022-08-02T01:31:36.025Z,1.13
2022-08-02T01:34:49.287Z,1.27
2022-08-02T01:37:49.584Z,1.08
2022-08-02T01:43:20.040Z,1.30
2022-08-02T01:46:08.318Z,1.20
2022-08-02T01:48:52.716Z,1.35
2022-08-02T01:52:00.948Z,1.27
2022-08-02T01:54:44.030Z,1.10
2022-08-02T01:57:33.730Z,1.33
2022-08-02T02:00:24.853Z,1.20
2022-08-02T02:03:16.951Z,1.20
2022-08-02T02:06:02.061Z,1.13
2022-08-02T02:08:50.953Z,1.20
2022-08-02T02:12:09.654Z,1.40
2022-08-02T02:14:41.941Z,1.45
2022-08-02T02:17:52.922Z,1.10
2022-08-02T02:20:43.689Z,1.45
2022-08-02T02:23:27.193Z,1.23
2022-08-02T02:26:31.329Z,1.15
2022-08-02T02:29:21.083Z,1.40
2022-08-02T02:32:04.106Z,1.40
2022-08-02T02:34:58.439Z,1.60
2022-08-02T02:37:41.476Z,1.52
2022-08-02T02:40:31.135Z,1.45
2022-08-02T02:43:14.947Z,1.50
2022-08-02T02:46:05.036Z,1.63
2022-08-02T02:48:47.740Z,1.83
2022-08-02T02:51:36.061Z,1.55
2022-08-02T02:54:32.083Z,1.60
2022-08-02T02:57:24.499Z,1.52
2022-08-02T03:00:06.927Z,1.80
2022-08-02T03:02:54.099Z,1.65
2022-08-02T03:05:35.360Z,1.88
2022-08-02T03:08:22.167Z,1.67
2022-08-02T03:11:04.494Z,1.92
2022-08-02T03:13:53.836Z,2.90
2022-08-02T03:16:36.369Z,2.90
2022-08-02T03:19:25.125Z,3.35
2022-08-02T03:22:15.589Z,3.20
2022-08-02T03:25:08.966Z,3.42
2022-08-02T03:27:59.544Z,2.95
2022-08-02T03:30:41.756Z,3.28
2022-08-02T03:33:31.404Z,3.80
2022-08-02T03:36:20.085Z,3.80
2022-08-02T03:39:08.982Z,3.13
2022-08-02T03:41:51.193Z,3.33
2022-08-02T03:44:39.993Z,2.90
2022-08-02T03:47:21.134Z,2.60
2022-08-02T03:50:09.372Z,2.67
2022-08-02T03:52:53.580Z,2.80
2022-08-02T03:55:44.059Z,2.70
2022-08-02T03:58:27.138Z,2.63
2022-08-02T04:01:14.138Z,2.70
2022-08-02T04:03:55.930Z,2.60
2022-08-02T04:06:47.043Z,2.70
2022-08-02T04:09:28.114Z,2.50
2022-08-02T04:12:15.797Z,2.60
2022-08-02T04:14:58.189Z,2.45
2022-08-02T04:17:51.394Z,2.47
2022-08-02T04:20:36.204Z,2.47
2022-08-02T04:23:26.920Z,2.60
2022-08-02T04:26:19.061Z,2.60
2022-08-02T04:29:08.417Z,2.53
2022-08-02T04:31:59.172Z,2.40
2022-08-02T04:34:41.098Z,2.50
2022-08-02T04:37:28.537Z,2.45
2022-08-02T04:40:09.425Z,3.13
2022-08-02T04:42:57.211Z,2.90
2022-08-02T04:45:38.811Z,2.78
2022-08-02T04:48:28.452Z,2.70
2022-08-02T04:51:09.037Z,2.95
2022-08-02T04:53:56.161Z,3.00
2022-08-02T04:56:51.394Z,2.95
2022-08-02T04:59:39.210Z,3.17
2022-08-02T05:02:23.038Z,1.95
2022-08-02T05:05:11.159Z,2.65
2022-08-02T05:07:52.821Z,2.35
2022-08-02T05:10:43.507Z,2.75
2022-08-02T05:13:24.051Z,2.00
2022-08-02T05:16:13.238Z,1.77
2022-08-02T05:18:54.073Z,2.00
2022-08-02T05:21:42.318Z,2.58
2022-08-02T05:24:23.079Z,2.15
2022-08-02T05:27:16.446Z,2.22
2022-08-02T05:30:02.949Z,2.08
2022-08-02T05:32:57.767Z,1.70
2022-08-02T05:35:38.472Z,1.70
2022-08-02T05:38:26.426Z,1.70
2022-08-02T05:41:08.180Z,1.70
2022-08-02T05:43:56.653Z,1.67
2022-08-02T05:46:38.060Z,1.63
2022-08-02T05:49:32.191Z,1.48
2022-08-02T05:52:25.264Z,1.67
2022-08-02T05:55:18.391Z,3.38
2022-08-02T05:58:31.110Z,2.53
2022-08-02T06:01:24.243Z,1.80
2022-08-02T06:04:07.088Z,1.63
2022-08-02T06:07:07.419Z,1.67
2022-08-02T06:09:50.092Z,1.80
2022-08-02T06:12:46.810Z,1.20
2022-08-02T06:15:28.103Z,1.98
2022-08-02T06:18:16.615Z,1.50
2022-08-02T06:20:58.083Z,1.50
2022-08-02T06:23:58.694Z,1.60
2022-08-02T06:26:55.255Z,1.20
2022-08-02T06:29:44.440Z,1.25
2022-08-02T06:32:27.387Z,2.13
2022-08-02T06:35:17.205Z,1.42
2022-08-02T06:37:59.977Z,1.73
2022-08-02T06:41:13.802Z,1.60
2022-08-02T06:44:41.998Z,1.37
2022-08-02T06:47:15.199Z,0.90
2022-08-02T06:49:56.597Z,1.25
2022-08-02T06:52:46.532Z,0.98
2022-08-02T06:55:27.503Z,0.98
2022-08-02T06:58:15.243Z,0.90
2022-08-02T07:00:58.116Z,1.00
2022-08-02T07:03:48.252Z,1.35
2022-08-02T07:06:30.337Z,1.15
2022-08-02T07:09:21.612Z,0.90
2022-08-02T07:12:05.383Z,0.98
2022-08-02T07:14:54.160Z,0.90
2022-08-02T07:17:36.880Z,0.90
2022-08-02T07:20:24.326Z,1.23
2022-08-02T07:23:06.540Z,0.93
2022-08-02T07:26:05.359Z,1.25
2022-08-02T07:28:54.393Z,0.90
2022-08-02T07:31:36.313Z,0.80
2022-08-02T07:34:24.371Z,0.70
2022-08-02T07:37:12.518Z,1.13
2022-08-02T07:40:20.352Z,1.00
2022-08-02T07:43:04.227Z,1.20
2022-08-02T07:45:55.867Z,1.60
2022-08-02T07:48:42.763Z,1.40
2022-08-02T07:51:31.149Z,1.33
2022-08-02T07:54:12.281Z,1.10
2022-08-02T07:57:07.176Z,1.25
2022-08-02T07:59:50.829Z,1.30
2022-08-02T08:02:39.373Z,1.55
2022-08-02T08:05:21.259Z,1.42
2022-08-02T08:08:15.068Z,1.35
2022-08-02T08:10:59.196Z,1.50
2022-08-02T08:13:50.018Z,1.45
2022-08-02T08:16:31.280Z,1.38
2022-08-02T08:19:18.930Z,1.40
2022-08-02T08:22:01.865Z,1.45
2022-08-02T08:24:49.049Z,1.33
2022-08-02T08:27:38.300Z,1.20
2022-08-02T08:30:19.557Z,1.25
2022-08-02T08:33:08.327Z,1.30
2022-08-02T08:35:50.380Z,1.42
2022-08-02T08:38:40.276Z,1.30
2022-08-02T08:41:23.212Z,1.02
2022-08-02T08:44:11.699Z,1.00
2022-08-02T08:46:55.966Z,1.02
2022-08-02T08:49:52.658Z,0.98
2022-08-02T08:52:34.975Z,1.02
2022-08-02T08:55:25.540Z,1.27
2022-08-02T08:58:09.542Z,0.90
2022-08-02T09:00:57.373Z,1.08
2022-08-02T09:03:38.968Z,1.15
2022-08-02T09:06:32.389Z,1.20
2022-08-02T09:09:14.332Z,1.13
2022-08-02T09:12:01.347Z,1.20
2022-08-02T09:14:42.223Z,0.80
2022-08-02T09:17:30.348Z,1.00
2022-08-02T09:20:15.649Z,1.48
2022-08-02T09:23:18.846Z,0.93
2022-08-02T09:26:19.600Z,1.20
2022-08-02T09:29:11.276Z,0.98
2022-08-02T09:31:53.340Z,1.30
2022-08-02T09:35:00.509Z,1.13
2022-08-02T09:37:42.833Z,1.10
2022-08-02T09:40:42.617Z,1.30
2022-08-02T09:43:24.231Z,1.30
2022-08-02T09:46:25.488Z,1.60
2022-08-02T09:49:22.330Z,1.00
2022-08-02T09:52:11.587Z,1.70
2022-08-02T09:54:52.999Z,1.35
2022-08-02T09:57:40.383Z,2.17
2022-08-02T10:00:37.013Z,1.40
2022-08-02T10:03:35.062Z,1.15
2022-08-02T10:06:17.363Z,2.00
2022-08-02T10:09:06.411Z,1.50
2022-08-02T10:11:47.268Z,1.52
2022-08-02T10:14:35.614Z,1.45
2022-08-02T10:17:22.245Z,1.30
2022-08-02T10:20:11.401Z,1.40
2022-08-02T10:22:52.430Z,1.58
2022-08-02T10:25:45.423Z,1.38
2022-08-02T10:28:38.247Z,1.20
2022-08-02T10:31:22.407Z,1.25
2022-08-02T10:34:17.404Z,1.60
2022-08-02T10:37:01.342Z,1.50
2022-08-02T10:39:52.825Z,1.30
2022-08-02T10:42:54.473Z,1.35
2022-08-02T10:49:43.683Z,1.25
2022-08-02T10:52:36.279Z,1.13
2022-08-02T10:55:22.134Z,1.70
2022-08-02T10:58:35.194Z,1.70
2022-08-02T11:01:52.165Z,1.17
2022-08-02T11:07:50.378Z,1.40
2022-08-02T11:10:46.271Z,1.52
2022-08-02T11:13:28.624Z,1.40
2022-08-02T11:16:17.838Z,1.50
2022-08-02T11:18:58.381Z,1.27
2022-08-02T11:21:48.523Z,1.20
2022-08-02T11:24:37.446Z,1.45
2022-08-02T11:27:27.293Z,1.30
2022-08-02T11:30:19.489Z,1.27
2022-08-02T11:33:13.317Z,1.30
2022-08-02T11:35:57.555Z,1.38
2022-08-02T11:38:44.312Z,1.30
2022-08-02T11:41:45.888Z,1.70
2022-08-02T11:44:36.318Z,1.55
2022-08-02T11:47:20.071Z,1.40
2022-08-02T11:50:17.168Z,1.50
2022-08-02T11:52:59.419Z,1.33
2022-08-02T11:55:46.334Z,1.33
2022-08-02T11:58:27.564Z,1.25
2022-08-02T12:01:16.327Z,1.60
2022-08-02T12:04:03.509Z,1.85
2022-08-02T12:06:51.070Z,1.20
2022-08-02T12:09:40.736Z,1.23
2022-08-02T12:12:30.237Z,1.15
2022-08-02T12:15:11.444Z,1.20
2022-08-02T12:18:18.326Z,1.20
2022-08-02T12:21:02.588Z,1.33
2022-08-02T12:23:59.812Z,1.52
2022-08-02T12:26:59.309Z,1.45
2022-08-02T12:29:55.885Z,1.48
2022-08-02T12:32:40.988Z,1.35
2022-08-02T12:35:28.338Z,1.52
2022-08-02T12:38:17.419Z,0.90
2022-08-02T12:41:30.230Z,1.10
2022-08-02T12:44:12.746Z,2.10
2022-08-02T12:47:12.352Z,1.35
2022-08-02T12:49:53.460Z,1.50
2022-08-02T12:52:41.455Z,1.70
2022-08-02T12:56:02.544Z,0.95
2022-08-02T12:58:56.736Z,1.88
2022-08-02T13:01:37.512Z,1.20
2022-08-02T13:04:25.842Z,1.30
2022-08-02T13:07:07.330Z,1.10
2022-08-02T13:10:02.671Z,1.58
2022-08-02T13:12:44.462Z,1.10
2022-08-02T13:15:49.898Z,1.10
2022-08-02T13:18:33.257Z,0.93
2022-08-02T13:21:40.752Z,0.60
2022-08-02T13:24:38.693Z,1.15
2022-08-02T13:27:36.484Z,1.27
2022-08-02T13:30:24.501Z,0.80
2022-08-02T13:33:05.770Z,0.70
2022-08-02T13:35:55.457Z,0.93
2022-08-02T13:38:36.369Z,1.02
2022-08-02T13:41:25.617Z,0.98
2022-08-02T13:44:10.514Z,1.00
2022-08-02T13:46:58.518Z,1.00
2022-08-02T13:49:51.197Z,1.00
2022-08-02T13:52:41.293Z,0.90
2022-08-02T13:55:25.762Z,1.10
2022-08-02T13:58:14.535Z,1.08
2022-08-02T14:00:55.395Z,1.20
2022-08-02T14:04:08.024Z,1.15
2022-08-02T14:06:44.444Z,0.80
2022-08-02T14:09:33.631Z,0.85
2022-08-02T14:12:17.601Z,1.10
2022-08-02T14:15:04.694Z,0.95
2022-08-02T14:17:46.425Z,0.98
2022-08-02T14:20:34.508Z,0.98
2022-08-02T14:23:15.791Z,1.10
2022-08-02T14:26:05.543Z,0.98
2022-08-02T14:28:53.265Z,0.90
2022-08-02T14:31:37.975Z,0.73
2022-08-02T14:34:31.298Z,1.08
2022-08-02T14:37:12.593Z,0.80
2022-08-02T14:40:01.201Z,1.27
2022-08-02T14:42:42.580Z,1.00
2022-08-02T14:45:39.992Z,0.93
2022-08-02T14:48:22.583Z,1.15
2022-08-02T14:51:10.543Z,0.88
2022-08-02T14:54:02.861Z,0.70
2022-08-02T14:56:57.441Z,1.08
2022-08-02T14:59:42.612Z,0.90
2022-08-02T15:02:29.407Z,1.40
2022-08-02T15:05:10.523Z,1.00
2022-08-02T15:07:59.422Z,0.98
2022-08-02T15:10:41.093Z,0.90
2022-08-02T15:13:27.416Z,1.55
2022-08-02T15:16:08.542Z,1.10
2022-08-02T15:18:55.445Z,1.00
2022-08-02T15:21:41.464Z,1.10
2022-08-02T15:24:29.437Z,1.10
2022-08-02T15:27:24.416Z,0.85
2022-08-02T15:30:15.442Z,0.90
2022-08-02T15:32:58.217Z,1.20
2022-08-02T15:35:46.506Z,1.05
2022-08-02T15:38:30.583Z,0.93
2022-08-02T15:41:20.817Z,1.20
2022-08-02T15:44:01.995Z,1.10
2022-08-02T15:46:48.464Z,1.02
2022-08-02T15:49:29.598Z,1.00
2022-08-02T15:52:18.612Z,1.80
2022-08-02T15:55:07.022Z,0.70
2022-08-02T15:57:55.456Z,0.75
2022-08-02T16:00:36.577Z,1.00
2022-08-02T16:03:25.833Z,0.73
2022-08-02T16:06:06.605Z,1.10
2022-08-02T16:08:56.356Z,1.00
2022-08-02T16:11:38.560Z,1.20
2022-08-02T16:14:28.243Z,1.42
2022-08-02T16:17:10.487Z,1.17
2022-08-02T16:19:57.942Z,1.25
2022-08-02T16:22:38.748Z,1.17
2022-08-02T16:25:29.310Z,0.80
2022-08-02T16:28:19.055Z,0.80
2022-08-02T16:31:10.360Z,1.00
2022-08-02T16:33:58.571Z,0.90
2022-08-02T16:36:39.852Z,0.90
2022-08-02T16:39:28.440Z,0.90
2022-08-02T16:42:12.000Z,0.88
2022-08-02T16:45:03.584Z,1.13
2022-08-02T16:47:57.478Z,0.70
2022-08-02T16:50:48.454Z,0.60
2022-08-02T16:53:37.174Z,0.85
2022-08-02T16:56:26.823Z,0.60
2022-08-02T16:59:07.510Z,0.80
2022-08-02T17:05:01.492Z,1.15
2022-08-02T17:08:15.237Z,1.30
2022-08-02T17:10:54.870Z,1.40
2022-08-02T17:13:43.783Z,1.27
2022-08-02T17:16:26.592Z,1.10
2022-08-02T17:19:14.595Z,0.85
2022-08-02T17:21:55.526Z,1.20
2022-08-02T17:24:46.016Z,1.08
2022-08-02T17:27:37.032Z,1.20
2022-08-02T17:30:26.936Z,0.90
2022-08-02T17:33:15.549Z,1.00
2022-08-02T17:35:58.475Z,0.80
2022-08-02T17:38:50.180Z,0.75
2022-08-02T17:44:43.033Z,1.00
2022-08-02T17:47:31.433Z,1.00
2022-08-02T17:50:32.288Z,0.70
2022-08-02T17:53:13.631Z,0.90
2022-08-02T17:56:01.534Z,1.20
2022-08-02T17:58:51.919Z,0.90
2022-08-02T18:01:52.942Z,0.77
2022-08-02T18:04:38.003Z,1.02
2022-08-02T18:07:25.555Z,1.08
2022-08-02T18:10:24.680Z,1.02
2022-08-02T18:13:13.920Z,0.80
2022-08-02T18:15:59.094Z,0.70
2022-08-02T18:18:47.941Z,0.98
2022-08-02T18:21:35.020Z,1.10
2022-08-02T18:24:24.068Z,1.45
2022-08-02T18:27:17.566Z,1.00
2022-08-02T18:30:07.549Z,1.00
2022-08-02T18:33:57.104Z,1.38
2022-08-02T18:35:55.945Z,0.88
2022-08-02T18:38:36.691Z,1.20
2022-08-02T18:41:24.941Z,1.40
2022-08-02T18:44:08.025Z,0.88
2022-08-02T18:46:56.957Z,1.38
2022-08-02T18:49:46.607Z,1.33
2022-08-02T18:52:47.567Z,1.20
2022-08-02T18:56:00.211Z,1.23
2022-08-02T18:58:46.972Z,1.45
2022-08-02T19:01:39.488Z,0.90
2022-08-02T19:04:29.579Z,1.40
2022-08-02T19:07:18.695Z,1.17
2022-08-02T19:10:04.606Z,1.42
2022-08-02T19:12:52.684Z,0.80
2022-08-02T19:15:35.563Z,1.10
2022-08-02T19:18:26.685Z,1.52
2022-08-02T19:21:07.595Z,1.48
2022-08-02T19:23:58.774Z,1.58
2022-08-02T19:26:39.988Z,1.33
2022-08-02T19:29:48.614Z,1.27
2022-08-02T19:32:42.620Z,1.20
2022-08-02T19:36:01.965Z,0.82
2022-08-02T19:38:43.998Z,1.15
2022-08-02T19:41:48.108Z,1.73
2022-08-02T19:44:33.641Z,1.00
2022-08-02T19:47:21.725Z,1.58
2022-08-02T19:50:02.740Z,1.30
2022-08-02T19:52:49.933Z,1.48
2022-08-02T19:56:01.623Z,1.48
2022-08-02T19:58:44.965Z,1.30
2022-08-02T20:01:37.330Z,1.20
2022-08-02T20:04:29.284Z,1.40
2022-08-02T20:07:11.630Z,1.60
2022-08-02T20:10:01.751Z,2.20
2022-08-02T20:12:46.651Z,1.58
2022-08-02T20:15:55.832Z,1.30
2022-08-02T20:18:38.636Z,1.40
2022-08-02T20:21:35.613Z,1.13
2022-08-02T20:24:20.036Z,0.90
2022-08-02T20:27:23.019Z,1.15
2022-08-02T20:30:11.726Z,1.85
2022-08-02T20:32:58.856Z,2.20
2022-08-02T20:36:02.415Z,1.10
2022-08-02T20:38:44.523Z,1.50
2022-08-02T20:41:37.184Z,1.05
2022-08-02T20:44:30.756Z,1.48
2022-08-02T20:47:19.647Z,1.77
2022-08-02T20:50:39.672Z,1.42
2022-08-02T20:53:29.969Z,1.00
2022-08-02T20:56:12.689Z,1.00
2022-08-02T20:59:03.665Z,1.15
2022-08-02T21:01:56.859Z,1.10
2022-08-02T21:04:52.772Z,1.00
2022-08-02T21:07:34.751Z,1.35
2022-08-02T21:10:25.773Z,1.20
2022-08-02T21:13:18.905Z,1.20
2022-08-02T21:16:16.340Z,1.08
2022-08-02T21:19:00.522Z,1.20
2022-08-02T21:21:49.791Z,1.42
2022-08-02T21:24:31.293Z,1.23
2022-08-02T21:27:52.131Z,1.48
2022-08-02T21:30:32.762Z,1.25
2022-08-02T21:33:17.886Z,1.45
2022-08-02T21:36:11.912Z,1.30
2022-08-02T21:38:57.684Z,2.05
2022-08-02T21:41:47.806Z,1.40
2022-08-02T21:44:29.587Z,1.92
2022-08-02T21:47:25.288Z,1.35
2022-08-02T21:53:06.769Z,1.90
2022-08-02T21:56:02.493Z,2.35
2022-08-02T21:58:51.988Z,1.90
2022-08-02T22:01:34.271Z,2.10
2022-08-02T22:04:21.824Z,1.90
2022-08-02T22:07:02.926Z,2.20
2022-08-02T22:09:54.078Z,2.15
2022-08-02T22:12:36.701Z,2.22
2022-08-02T22:15:25.796Z,2.70
2022-08-02T22:18:17.068Z,2.78
2022-08-02T22:21:20.578Z,1.77
2022-08-02T22:24:04.108Z,1.75
2022-08-02T22:27:00.802Z,2.92
2022-08-02T22:29:50.686Z,1.85
2022-08-02T22:32:50.924Z,2.40
2022-08-02T22:35:39.775Z,1.80
2022-08-02T22:38:21.822Z,2.30
2022-08-02T22:41:13.941Z,2.30
2022-08-02T22:43:55.348Z,1.75
2022-08-02T22:46:43.087Z,1.80
2022-08-02T22:49:39.111Z,1.95
2022-08-02T22:52:30.780Z,2.13
2022-08-02T22:55:16.156Z,2.22
2022-08-02T22:58:06.106Z,2.00
2022-08-02T22:58:49.062Z,1.00
2022-08-02T22:58:49.595Z,0.90
2022-08-02T23:00:46.877Z,2.17
2022-08-02T23:03:34.109Z,1.92
2022-08-02T23:06:17.510Z,1.80
2022-08-02T23:09:05.054Z,1.67
2022-08-02T23:11:45.869Z,1.92
2022-08-02T23:14:36.178Z,1.60
2022-08-02T23:17:35.661Z,1.30
2022-08-02T23:20:24.507Z,1.88
2022-08-02T23:23:11.520Z,1.80
2022-08-02T23:25:59.727Z,1.70
2022-08-02T23:28:49.389Z,1.35
2022-08-02T23:31:41.787Z,1.58
2022-08-02T23:34:29.867Z,1.85
2022-08-02T23:37:11.734Z,1.77
2022-08-02T23:39:59.892Z,1.60
2022-08-02T23:42:41.519Z,1.52
2022-08-02T23:45:34.960Z,1.73
2022-08-02T23:51:09.303Z,1.75
2022-08-02T23:53:57.495Z,1.67
2022-08-02T23:56:46.899Z,1.60
2022-08-02T23:59:27.743Z,2.03
